Main page
METAR-TAF:

METAR-TAF

Airports :

Edinburgh Airport

Edinburgh, Scotland

latitude: 55-57N, longitude: 003-21W, elevation: 41 m

Current weather observation

The report was made 39 minutes ago, at 21:50 UTC
Wind 5 kt from the East/Northeast
Temperature 4°C
Humidity 100%
Pressure 1032 hPa
Visibility: 4600 m
Scattered clouds at a height of 1300 ft
mist

METAR: EGPH 172150Z 06005KT 4600 BR SCT013 04/04 Q1032

Time: 22:29 (22:29 UTC)

Forecast

The report was made 2 hours and 56 minutes ago, at 19:33 UTC
Forecast valid from 17 at 19 UTC to 18 at 18 UTC
Wind 8 kt from the East/Northeast
Visibility 10 km or more
Scattered clouds at a height of 1800 ft
Temporary
from 17 at 19 UTC to 18 at 18 UTC
Visibility: 7000 m
Probability 40% :
Temporary
from 17 at 19 UTC to 18 at 07 UTC
Visibility: 3000 m
mist

TAF: EGPH 171933Z 1719/1818 07008KT 9999 SCT018 TEMPO 1719/1818 7000 PROB40 TEMPO 1719/1807 3000 BR

Weather observations and forecasts of more than 4000 airports (METAR and TAF reports).

The available stations are represented by yellow and red dots on the map.

Hover mouse over dot to see the name of the station.

Then click to see weather observations and forecasts.

To change the map : click on the green buttons with a black cross to zoom in, on the green button with a dash to zoom out, or on the green arrows for adjacent maps.


METAR-TAF: